Time;durP1;ratioP1;P1;durP2;ratioP2;P2;SDS_P1;SDS_P2;PMS_P1;PMS_P2;Temp;Humidity;BMP_temperature;BMP_pressure;BME280_temperature;BME280_humidity;BME280_pressure;Samples;Min_cycle;Max_cycle;Signal;HPM_P1;HPM_P2
2022/03/16 00:01:29;;;;;;;47.70;20.90;;;9.00;94.70;;;;;;5093616;28;20249;-76
2022/03/16 00:03:55;;;;;;;38.60;19.93;;;9.00;94.80;;;;;;5078176;28;20662;-76
2022/03/16 00:06:21;;;;;;;37.37;19.30;;;9.00;94.80;;;;;;5091178;28;20232;-76
2022/03/16 00:08:47;;;;;;;39.40;20.07;;;9.00;94.80;;;;;;5094829;28;20183;-75
2022/03/16 00:11:13;;;;;;;45.27;21.80;;;9.00;95.00;;;;;;5095588;28;20607;-75
2022/03/16 00:13:39;;;;;;;41.53;20.17;;;9.10;94.90;;;;;;5094901;28;20175;-77
2022/03/16 00:16:05;;;;;;;47.00;20.30;;;9.10;94.80;;;;;;5076153;28;20436;-77
2022/03/16 00:18:30;;;;;;;41.10;20.57;;;9.10;94.70;;;;;;5094347;28;20213;-77
2022/03/16 00:20:58;;;;;;;48.73;22.80;;;9.10;94.50;;;;;;5094081;28;20809;-77
2022/03/16 00:23:25;;;;;;;43.87;20.07;;;9.10;94.30;;;;;;5094128;28;20232;-77
2022/03/16 00:25:51;;;;;;;40.33;18.93;;;9.10;94.20;;;;;;5094320;28;20425;-75
2022/03/16 00:28:16;;;;;;;46.87;21.40;;;9.10;94.20;;;;;;5094175;28;20421;-75
2022/03/16 00:30:42;;;;;;;46.10;21.20;;;9.10;94.20;;;;;;5101652;28;20199;-76
2022/03/16 00:33:08;;;;;;;44.80;21.20;;;9.10;94.20;;;;;;5093899;28;20649;-76
2022/03/16 00:35:34;;;;;;;40.90;21.20;;;9.20;94.20;;;;;;5093509;28;20191;-75
2022/03/16 00:38:00;;;;;;;50.00;23.13;;;9.20;94.20;;;;;;5093047;28;20467;-75
2022/03/16 00:40:26;;;;;;;50.40;22.07;;;9.20;94.00;;;;;;5093357;28;20199;-77
2022/03/16 00:42:52;;;;;;;50.57;22.30;;;9.10;94.00;;;;;;5075327;28;20175;-77
2022/03/16 00:45:17;;;;;;;48.20;22.73;;;9.00;94.10;;;;;;5093258;28;20845;-76
2022/03/16 00:47:43;;;;;;;47.80;23.03;;;9.00;94.10;;;;;;5093177;28;20264;-77
2022/03/16 00:50:09;;;;;;;50.03;22.87;;;8.90;94.10;;;;;;5093427;28;20211;-76
2022/03/16 00:52:35;;;;;;;47.03;22.67;;;8.80;94.40;;;;;;5094983;28;20531;-75
2022/03/16 00:55:00;;;;;;;55.50;23.70;;;8.80;94.60;;;;;;5095234;28;20432;-77
2022/03/16 00:57:26;;;;;;;54.57;23.90;;;8.80;94.70;;;;;;5094828;28;20207;-78
2022/03/16 00:59:52;;;;;;;57.13;25.67;;;8.80;95.10;;;;;;5095605;28;20247;-78
2022/03/16 01:02:18;;;;;;;57.57;26.90;;;8.90;95.10;;;;;;5094571;28;20550;-76
2022/03/16 01:04:43;;;;;;;58.23;25.37;;;8.90;95.10;;;;;;5095591;28;20685;-78
2022/03/16 01:07:09;;;;;;;56.03;24.97;;;8.80;95.10;;;;;;5097773;28;20417;-79
2022/03/16 01:09:35;;;;;;;54.77;25.07;;;8.80;95.20;;;;;;5099735;28;20553;-77
2022/03/16 01:12:04;;;;;;;56.87;27.20;;;8.80;95.20;;;;;;5100628;28;20294;-78
2022/03/16 01:14:30;;;;;;;58.63;25.80;;;8.90;95.30;;;;;;5100559;28;20901;-76
2022/03/16 01:16:56;;;;;;;60.27;26.43;;;8.80;95.30;;;;;;5104651;28;20499;-79
2022/03/16 01:19:22;;;;;;;64.00;27.43;;;8.90;95.10;;;;;;5103763;28;20414;-77
2022/03/16 01:21:48;;;;;;;61.63;28.30;;;8.80;95.10;;;;;;5100071;28;20685;-77
2022/03/16 01:24:13;;;;;;;57.43;25.80;;;8.80;95.10;;;;;;5099164;28;20561;-77
2022/03/16 01:26:39;;;;;;;58.87;27.70;;;8.80;95.00;;;;;;5099796;28;20485;-77
2022/03/16 01:29:05;;;;;;;62.80;29.50;;;8.80;95.10;;;;;;5101708;28;20242;-76
2022/03/16 01:31:31;;;;;;;60.20;26.33;;;8.80;95.00;;;;;;5102860;28;20199;-76
2022/03/16 01:33:56;;;;;;;63.13;28.00;;;8.90;95.20;;;;;;5083551;28;20178;-76
2022/03/16 01:36:22;;;;;;;58.67;25.67;;;8.90;95.10;;;;;;5100272;28;20186;-76
2022/03/16 01:38:48;;;;;;;54.97;25.43;;;9.00;95.20;;;;;;5098113;28;20189;-76
2022/03/16 01:41:14;;;;;;;57.90;25.87;;;9.00;95.10;;;;;;5077309;28;20661;-75
2022/03/16 01:43:40;;;;;;;57.93;25.73;;;9.10;94.80;;;;;;5093001;28;20182;-78
2022/03/16 01:46:06;;;;;;;60.40;26.33;;;9.10;94.70;;;;;;5092996;28;20190;-77
2022/03/16 01:48:31;;;;;;;61.07;28.40;;;9.10;94.60;;;;;;5076081;28;20947;-77
2022/03/16 01:50:57;;;;;;;59.30;26.93;;;9.10;94.60;;;;;;5092408;28;20704;-77
2022/03/16 01:53:27;;;;;;;60.60;27.37;;;9.10;94.70;;;;;;5091791;28;20245;-78
2022/03/16 01:55:53;;;;;;;56.93;26.50;;;9.20;94.60;;;;;;5073999;28;20429;-78
2022/03/16 01:58:19;;;;;;;78.47;30.00;;;9.20;94.50;;;;;;5092741;28;20463;-75
2022/03/16 02:00:45;;;;;;;72.10;29.93;;;9.20;94.40;;;;;;5092453;28;20520;-77
2022/03/16 02:03:11;;;;;;;69.60;30.03;;;9.20;94.40;;;;;;5094117;28;20470;-77
2022/03/16 02:05:37;;;;;;;61.97;26.97;;;9.10;94.30;;;;;;5098961;28;20407;-76
2022/03/16 02:08:05;;;;;;;73.23;29.43;;;9.10;94.30;;;;;;5108612;28;20432;-77
2022/03/16 02:10:33;;;;;;;66.60;28.13;;;9.20;94.20;;;;;;5096503;28;20437;-74
2022/03/16 02:13:00;;;;;;;65.60;28.50;;;9.20;94.20;;;;;;5096463;28;20507;-75
2022/03/16 02:15:26;;;;;;;71.23;30.63;;;9.20;94.20;;;;;;5093622;28;20422;-76
2022/03/16 02:17:55;;;;;;;69.10;28.80;;;9.20;94.30;;;;;;5092437;28;21055;-76
2022/03/16 02:20:22;;;;;;;67.53;28.50;;;9.10;94.30;;;;;;5091185;28;20931;-76
2022/03/16 02:22:54;;;;;;;68.47;29.50;;;9.20;94.40;;;;;;5091614;28;20422;-74
2022/03/16 02:25:21;;;;;;;63.33;28.67;;;9.20;94.30;;;;;;5091188;28;20919;-76
2022/03/16 02:27:47;;;;;;;66.53;27.43;;;9.20;94.30;;;;;;5090243;28;20445;-75
2022/03/16 02:30:13;;;;;;;74.13;30.63;;;9.20;94.30;;;;;;5074704;28;20525;-75
2022/03/16 02:32:39;;;;;;;72.80;30.97;;;9.30;94.30;;;;;;5077875;28;20186;-76
2022/03/16 02:35:05;;;;;;;74.87;29.83;;;9.30;94.30;;;;;;5081628;28;20420;-77
2022/03/16 02:37:31;;;;;;;75.47;29.73;;;9.20;94.20;;;;;;5100431;28;20289;-77
2022/03/16 02:39:57;;;;;;;68.07;28.40;;;9.20;94.20;;;;;;5098383;28;20453;-78
2022/03/16 02:42:23;;;;;;;77.00;32.63;;;9.20;94.30;;;;;;5100048;28;20171;-76
2022/03/16 02:44:49;;;;;;;67.40;28.27;;;9.20;94.20;;;;;;5097086;28;20435;-76
2022/03/16 02:47:14;;;;;;;83.07;32.03;;;9.20;94.30;;;;;;5096731;28;20523;-75
2022/03/16 02:49:40;;;;;;;73.30;32.37;;;9.10;94.40;;;;;;5099047;28;20636;-77
2022/03/16 02:52:10;;;;;;;73.70;30.50;;;9.10;94.40;;;;;;5087323;28;20187;-75
2022/03/16 02:54:35;;;;;;;78.60;34.40;;;9.10;94.40;;;;;;5097868;28;20194;-75
2022/03/16 02:57:02;;;;;;;72.43;30.30;;;9.10;94.40;;;;;;5097234;28;20465;-74
2022/03/16 02:59:28;;;;;;;73.73;29.93;;;9.10;94.40;;;;;;5097016;28;20682;-75
2022/03/16 03:01:53;;;;;;;68.53;28.47;;;9.10;94.30;;;;;;5094813;28;20438;-75
2022/03/16 03:04:19;;;;;;;69.10;29.03;;;9.00;94.50;;;;;;5075488;28;20418;-76
2022/03/16 03:06:45;;;;;;;71.17;30.90;;;9.00;94.60;;;;;;5092231;28;20645;-77
2022/03/16 03:09:11;;;;;;;71.27;30.77;;;8.90;94.70;;;;;;5093301;28;20801;-78
2022/03/16 03:11:37;;;;;;;71.13;29.10;;;8.90;94.90;;;;;;5075209;28;20623;-75
2022/03/16 03:14:02;;;;;;;73.70;29.60;;;8.90;95.00;;;;;;5079578;28;20603;-75
2022/03/16 03:16:28;;;;;;;75.87;33.20;;;8.90;95.00;;;;;;5076893;28;20567;-76
2022/03/16 03:18:54;;;;;;;82.17;31.93;;;8.90;95.00;;;;;;5099654;28;20179;-76
2022/03/16 03:21:20;;;;;;;69.03;30.40;;;8.90;94.90;;;;;;5107752;28;20504;-75
2022/03/16 03:23:45;;;;;;;76.37;30.67;;;8.90;94.90;;;;;;5100277;28;20223;-75
2022/03/16 03:26:11;;;;;;;75.63;31.30;;;8.90;95.00;;;;;;5095421;28;20641;-75
2022/03/16 03:28:37;;;;;;;82.47;32.20;;;8.90;95.00;;;;;;5094684;28;20718;-76
2022/03/16 03:31:03;;;;;;;91.10;35.43;;;8.80;95.10;;;;;;5092472;28;20225;-75
2022/03/16 03:33:30;;;;;;;78.23;31.03;;;8.80;95.20;;;;;;5092902;28;20558;-76
2022/03/16 03:35:56;;;;;;;79.20;32.83;;;8.70;95.30;;;;;;5092037;28;20494;-74
2022/03/16 03:38:21;;;;;;;78.70;34.23;;;8.70;95.50;;;;;;5092186;28;20974;-74
2022/03/16 03:40:47;;;;;;;83.37;33.83;;;8.60;95.60;;;;;;5075775;28;20363;-76
2022/03/16 03:43:13;;;;;;;73.60;30.73;;;8.70;95.70;;;;;;5074551;28;20557;-75
2022/03/16 03:45:39;;;;;;;86.73;32.43;;;8.70;95.80;;;;;;5092259;28;20633;-74
2022/03/16 03:48:05;;;;;;;80.80;33.57;;;8.80;95.80;;;;;;5074031;28;20661;-73
2022/03/16 03:50:30;;;;;;;75.57;31.67;;;8.80;95.70;;;;;;5092406;28;20221;-75
2022/03/16 03:52:56;;;;;;;76.73;32.77;;;8.70;95.70;;;;;;5092245;28;20183;-74
2022/03/16 03:55:23;;;;;;;82.30;33.60;;;8.80;95.70;;;;;;5093162;28;20179;-76
2022/03/16 03:57:49;;;;;;;82.80;34.93;;;8.80;95.80;;;;;;5074447;28;20260;-76
2022/03/16 04:00:15;;;;;;;78.03;33.20;;;8.80;95.90;;;;;;5092084;28;20800;-75
2022/03/16 04:02:51;;;;;;;74.30;33.37;;;8.80;95.90;;;;;;5073910;28;20924;-78
2022/03/16 04:05:18;;;;;;;77.40;32.57;;;8.80;95.80;;;;;;5084400;28;20431;-75
2022/03/16 04:07:44;;;;;;;82.93;33.63;;;8.80;95.80;;;;;;5092432;28;20811;-76
2022/03/16 04:10:10;;;;;;;82.57;32.40;;;8.80;95.80;;;;;;5092545;28;20441;-75
2022/03/16 04:12:36;;;;;;;89.27;34.67;;;8.80;95.80;;;;;;5092754;28;20464;-76
2022/03/16 04:15:03;;;;;;;78.00;31.90;;;8.90;95.80;;;;;;5092343;28;20422;-77
2022/03/16 04:17:29;;;;;;;77.37;32.33;;;8.90;95.60;;;;;;5095701;28;20464;-76
2022/03/16 04:19:54;;;;;;;77.27;31.23;;;8.90;95.50;;;;;;5082270;28;20425;-76
2022/03/16 04:22:20;;;;;;;93.17;34.80;;;8.90;95.50;;;;;;5093385;28;20260;-77
2022/03/16 04:24:46;;;;;;;76.50;31.53;;;9.00;95.40;;;;;;5096079;28;20418;-75
2022/03/16 04:27:12;;;;;;;75.77;32.93;;;8.90;95.40;;;;;;5097729;28;20213;-74
2022/03/16 04:29:38;;;;;;;76.53;33.00;;;8.90;95.50;;;;;;5098706;28;20187;-75
2022/03/16 04:32:04;;;;;;;91.03;35.30;;;8.90;95.40;;;;;;5083693;28;20449;-76
2022/03/16 04:34:30;;;;;;;84.73;33.87;;;8.80;95.40;;;;;;5095166;28;20179;-76
2022/03/16 04:36:56;;;;;;;84.77;36.60;;;8.80;95.50;;;;;;5091130;28;20971;-78
2022/03/16 04:39:21;;;;;;;82.00;33.97;;;8.80;95.60;;;;;;5090889;28;20633;-78
2022/03/16 04:41:47;;;;;;;78.93;32.27;;;8.70;95.60;;;;;;5091228;28;20451;-77
2022/03/16 04:44:13;;;;;;;81.17;31.63;;;8.70;95.70;;;;;;5081089;28;20179;-77
2022/03/16 04:46:39;;;;;;;81.03;34.77;;;8.70;95.80;;;;;;5091191;28;20549;-77
2022/03/16 04:49:05;;;;;;;83.47;34.10;;;8.60;95.80;;;;;;5075536;28;20252;-76
2022/03/16 04:51:31;;;;;;;80.53;31.13;;;8.60;95.90;;;;;;5093078;28;20862;-76
2022/03/16 04:53:57;;;;;;;101.23;37.93;;;8.60;96.00;;;;;;5093206;28;20419;-76
2022/03/16 04:56:22;;;;;;;100.67;35.53;;;8.60;96.20;;;;;;5092934;28;20637;-75
2022/03/16 04:58:48;;;;;;;91.80;37.77;;;8.60;96.20;;;;;;5075100;28;20217;-76
2022/03/16 05:01:14;;;;;;;85.97;33.00;;;8.50;96.30;;;;;;5093432;28;20245;-76
2022/03/16 05:03:40;;;;;;;79.60;34.93;;;8.50;96.40;;;;;;5093268;28;20175;-75
2022/03/16 05:06:05;;;;;;;85.27;34.87;;;8.50;96.50;;;;;;5093244;28;20207;-75
2022/03/16 05:08:35;;;;;;;92.27;36.20;;;8.50;96.50;;;;;;5093300;28;20179;-77
2022/03/16 05:11:02;;;;;;;87.37;36.37;;;8.50;96.50;;;;;;5093231;28;20672;-76
2022/03/16 05:13:28;;;;;;;85.23;35.90;;;8.50;96.50;;;;;;5093178;28;20908;-75
2022/03/16 05:15:54;;;;;;;89.50;36.77;;;8.40;96.70;;;;;;5092919;28;20432;-76
2022/03/16 05:18:20;;;;;;;99.30;38.57;;;8.40;96.70;;;;;;5093115;28;20510;-76
2022/03/16 05:20:45;;;;;;;89.80;38.77;;;8.40;96.90;;;;;;5092798;28;20985;-77
2022/03/16 05:23:11;;;;;;;96.87;37.30;;;8.40;97.00;;;;;;5093439;28;20183;-76
2022/03/16 05:25:37;;;;;;;94.87;38.07;;;8.40;97.00;;;;;;5092842;28;20531;-76
2022/03/16 05:28:03;;;;;;;90.87;34.97;;;8.40;97.10;;;;;;5092760;28;20438;-76
2022/03/16 05:30:29;;;;;;;93.43;37.50;;;8.50;97.10;;;;;;5074185;28;20198;-76
2022/03/16 05:32:57;;;;;;;95.97;37.00;;;8.50;97.10;;;;;;5087774;28;20423;-75
2022/03/16 05:35:26;;;;;;;90.40;33.40;;;8.50;97.10;;;;;;5090565;28;20187;-76
2022/03/16 05:37:52;;;;;;;89.77;35.37;;;8.50;97.00;;;;;;5091215;28;20468;-77
2022/03/16 05:40:18;;;;;;;89.80;38.87;;;8.50;97.10;;;;;;5090516;28;20448;-76
2022/03/16 05:42:44;;;;;;;101.73;39.97;;;8.50;97.10;;;;;;5074098;28;20217;-74
2022/03/16 05:45:10;;;;;;;92.93;37.57;;;8.50;97.10;;;;;;5091278;28;20488;-76
2022/03/16 05:47:37;;;;;;;92.23;35.63;;;8.50;97.10;;;;;;5090767;28;20417;-76
2022/03/16 05:50:03;;;;;;;92.77;37.63;;;8.50;97.20;;;;;;5089980;28;20600;-75
2022/03/16 05:52:31;;;;;;;84.90;34.33;;;8.60;97.10;;;;;;5090491;28;20484;-77
2022/03/16 05:54:58;;;;;;;88.60;37.63;;;8.60;97.00;;;;;;5090615;28;20460;-76
2022/03/16 05:57:24;;;;;;;91.07;36.37;;;8.60;96.90;;;;;;5090975;28;20468;-74
2022/03/16 05:59:51;;;;;;;79.83;33.80;;;8.60;96.90;;;;;;5090257;28;20409;-75
2022/03/16 06:02:17;;;;;;;111.23;41.50;;;8.60;96.90;;;;;;5090441;28;20508;-75
2022/03/16 06:04:44;;;;;;;101.40;39.30;;;8.70;97.00;;;;;;5092448;28;20484;-79
2022/03/16 06:07:11;;;;;;;86.90;34.93;;;8.70;97.00;;;;;;5094502;28;20770;-74
2022/03/16 06:09:37;;;;;;;86.53;34.33;;;8.70;96.80;;;;;;5094197;28;20417;-77
2022/03/16 06:12:03;;;;;;;83.47;34.50;;;8.70;96.70;;;;;;5093845;28;20490;-74
2022/03/16 06:14:31;;;;;;;83.93;33.20;;;8.70;96.70;;;;;;5094324;28;20562;-77
2022/03/16 06:16:57;;;;;;;98.10;39.20;;;8.80;96.70;;;;;;5084216;28;20457;-76
2022/03/16 06:19:24;;;;;;;89.53;37.60;;;8.80;96.70;;;;;;5078496;28;20524;-75
2022/03/16 06:21:50;;;;;;;85.63;34.63;;;8.80;96.60;;;;;;5094599;28;20950;-76
2022/03/16 06:24:16;;;;;;;94.83;38.20;;;8.80;96.40;;;;;;5076981;28;20424;-77
2022/03/16 06:26:43;;;;;;;103.63;39.80;;;8.80;96.50;;;;;;5094733;28;20420;-78
2022/03/16 06:29:10;;;;;;;89.00;36.90;;;8.90;96.50;;;;;;5081198;28;20429;-76
2022/03/16 06:31:36;;;;;;;89.77;35.70;;;8.90;96.50;;;;;;5093640;28;20455;-77
2022/03/16 06:34:02;;;;;;;79.17;34.70;;;8.90;96.40;;;;;;5094481;28;20954;-78
2022/03/16 06:36:28;;;;;;;79.87;33.90;;;9.00;96.40;;;;;;5094445;28;20857;-76
2022/03/16 06:38:54;;;;;;;78.67;33.00;;;9.10;96.30;;;;;;5095051;28;20464;-77
2022/03/16 06:41:20;;;;;;;88.33;35.03;;;9.20;96.10;;;;;;5095517;28;20195;-78
2022/03/16 06:43:46;;;;;;;87.73;35.00;;;9.20;95.90;;;;;;5101459;28;20454;-78
2022/03/16 06:46:12;;;;;;;86.00;35.47;;;9.30;95.50;;;;;;5106530;28;20413;-78
2022/03/16 06:48:37;;;;;;;102.60;38.67;;;9.20;95.50;;;;;;5086016;28;20252;-76
2022/03/16 06:51:03;;;;;;;84.07;34.00;;;9.20;95.50;;;;;;5099274;28;20676;-78
2022/03/16 06:53:29;;;;;;;93.43;34.47;;;9.20;95.60;;;;;;5094636;28;20729;-76
2022/03/16 06:55:55;;;;;;;97.30;37.80;;;9.20;95.60;;;;;;5094827;28;20577;-77
2022/03/16 06:58:21;;;;;;;86.90;33.73;;;9.30;95.40;;;;;;5099095;28;20206;-77
2022/03/16 07:00:47;;;;;;;91.93;33.70;;;9.30;95.20;;;;;;5093678;28;21116;-74
2022/03/16 07:03:13;;;;;;;88.10;34.30;;;9.30;95.10;;;;;;5094295;28;20167;-78
2022/03/16 07:05:40;;;;;;;95.90;33.80;;;9.30;95.10;;;;;;5093469;28;20518;-76
2022/03/16 07:08:13;;;;;;;92.93;34.00;;;9.40;95.10;;;;;;5079589;28;20421;-76
2022/03/16 07:10:41;;;;;;;91.87;35.10;;;9.40;95.10;;;;;;5093808;28;20962;-75
2022/03/16 07:13:07;;;;;;;95.67;33.73;;;9.40;94.90;;;;;;5075298;28;20429;-77
2022/03/16 07:15:34;;;;;;;85.47;34.83;;;9.30;94.80;;;;;;5092346;28;20429;-75
2022/03/16 07:18:03;;;;;;;104.17;37.40;;;9.30;95.10;;;;;;5093025;28;20464;-77
2022/03/16 07:20:32;;;;;;;87.17;35.40;;;9.30;95.10;;;;;;5094207;28;20532;-78
2022/03/16 07:23:07;;;;;;;105.53;38.87;;;9.30;95.20;;;;;;5093507;28;20474;-76
2022/03/16 07:25:33;;;;;;;96.03;36.60;;;9.30;95.30;;;;;;5094488;28;20413;-76
2022/03/16 07:28:00;;;;;;;90.83;34.20;;;9.40;95.40;;;;;;5075777;28;20424;-77
2022/03/16 07:30:26;;;;;;;81.27;33.40;;;9.40;95.30;;;;;;5093882;28;20482;-77
2022/03/16 07:32:52;;;;;;;85.60;33.30;;;9.40;95.10;;;;;;5075822;28;20452;-77
2022/03/16 07:35:17;;;;;;;81.47;31.47;;;9.50;95.00;;;;;;5094678;28;20401;-76
2022/03/16 07:37:43;;;;;;;81.23;30.87;;;9.50;94.90;;;;;;5094949;28;20484;-78
2022/03/16 07:40:09;;;;;;;81.43;31.20;;;9.50;94.70;;;;;;5094877;28;20665;-75
2022/03/16 07:42:36;;;;;;;97.83;32.93;;;9.40;94.50;;;;;;5100138;28;20503;-76
2022/03/16 07:45:05;;;;;;;74.97;30.97;;;9.40;94.50;;;;;;5110364;28;20890;-77
2022/03/16 07:47:31;;;;;;;70.77;27.50;;;9.30;94.60;;;;;;5107652;28;20438;-77
2022/03/16 07:49:57;;;;;;;66.10;28.30;;;9.20;94.20;;;;;;5106578;28;20503;-77
2022/03/16 07:52:25;;;;;;;60.80;24.40;;;9.20;93.90;;;;;;5094711;28;20417;-77
2022/03/16 07:54:51;;;;;;;73.83;27.77;;;9.10;93.60;;;;;;5108432;28;20182;-78
2022/03/16 07:57:17;;;;;;;62.57;27.33;;;9.10;93.60;;;;;;5106440;28;20460;-77
2022/03/16 07:59:43;;;;;;;65.13;25.67;;;9.10;93.60;;;;;;5099373;28;20476;-77
2022/03/16 08:02:09;;;;;;;61.97;25.40;;;9.10;93.50;;;;;;5090922;28;20186;-77
2022/03/16 08:04:35;;;;;;;61.57;26.23;;;9.10;93.40;;;;;;5106469;28;20409;-76
2022/03/16 08:07:01;;;;;;;60.83;24.87;;;9.10;93.20;;;;;;5107679;28;20444;-76
2022/03/16 08:09:26;;;;;;;63.57;25.13;;;9.10;93.20;;;;;;5101819;28;20175;-78
2022/03/16 08:11:52;;;;;;;59.20;25.90;;;9.10;93.10;;;;;;5079510;28;20285;-78
2022/03/16 08:14:18;;;;;;;61.73;26.10;;;9.00;92.80;;;;;;5095045;28;20232;-77
2022/03/16 08:16:43;;;;;;;66.30;26.30;;;9.00;92.90;;;;;;5095973;28;20189;-76
2022/03/16 08:19:09;;;;;;;57.97;24.70;;;9.00;92.80;;;;;;5094023;28;20657;-76
2022/03/16 08:21:35;;;;;;;61.13;23.90;;;9.00;92.90;;;;;;5095376;28;20187;-78
2022/03/16 08:24:01;;;;;;;63.93;26.33;;;9.10;92.90;;;;;;5096350;28;20179;-79
2022/03/16 08:26:26;;;;;;;53.30;24.07;;;9.10;92.80;;;;;;5097482;28;20167;-80
2022/03/16 08:28:52;;;;;;;56.00;23.77;;;9.10;92.60;;;;;;5081876;28;20206;-79
2022/03/16 08:31:18;;;;;;;56.83;23.23;;;9.10;92.60;;;;;;5095875;28;20195;-77
2022/03/16 08:33:44;;;;;;;63.50;26.50;;;9.10;92.60;;;;;;5074874;28;20187;-79
2022/03/16 08:36:11;;;;;;;56.10;24.43;;;9.10;92.50;;;;;;5075028;28;20800;-79
2022/03/16 08:38:38;;;;;;;57.03;24.70;;;9.20;92.50;;;;;;5092495;28;20507;-78
2022/03/16 08:41:08;;;;;;;65.83;27.27;;;9.20;92.50;;;;;;5092624;28;20436;-78
2022/03/16 08:43:34;;;;;;;61.07;24.00;;;9.20;92.40;;;;;;5093272;28;20420;-79
2022/03/16 08:46:00;;;;;;;62.40;25.30;;;9.20;92.30;;;;;;5075452;28;20509;-79
2022/03/16 08:48:26;;;;;;;53.40;23.30;;;9.30;92.20;;;;;;5092214;28;20831;-79
2022/03/16 08:50:53;;;;;;;58.03;23.90;;;9.50;92.30;;;;;;5092436;28;20433;-77
2022/03/16 08:53:19;;;;;;;51.60;23.80;;;9.50;92.00;;;;;;5093621;28;20405;-77
2022/03/16 08:55:45;;;;;;;63.70;23.17;;;9.50;91.80;;;;;;5076551;28;20915;-79
2022/03/16 08:58:13;;;;;;;56.33;23.93;;;9.50;91.90;;;;;;5093870;28;20551;-79
2022/03/16 09:00:39;;;;;;;52.33;22.40;;;9.60;91.90;;;;;;5093859;28;20233;-77
2022/03/16 09:03:05;;;;;;;56.53;23.90;;;9.70;92.00;;;;;;5095212;28;20452;-77
2022/03/16 09:05:31;;;;;;;58.83;23.80;;;9.70;91.60;;;;;;5095540;28;20417;-78
2022/03/16 09:07:57;;;;;;;56.77;23.10;;;9.80;91.70;;;;;;5097224;28;20241;-77
2022/03/16 09:10:22;;;;;;;58.23;23.03;;;9.90;91.40;;;;;;5097376;28;20202;-79
2022/03/16 09:12:49;;;;;;;53.40;22.70;;;9.90;91.20;;;;;;5096161;28;20187;-78
2022/03/16 09:15:14;;;;;;;58.73;23.73;;;10.00;91.00;;;;;;5094990;28;20272;-78
2022/03/16 09:17:40;;;;;;;56.97;24.13;;;9.90;90.80;;;;;;5082639;28;20472;-79
2022/03/16 09:20:06;;;;;;;55.73;24.13;;;10.00;91.00;;;;;;5094983;28;20727;-77
2022/03/16 09:22:32;;;;;;;55.83;22.43;;;9.90;90.90;;;;;;5093212;28;20182;-76
2022/03/16 09:24:58;;;;;;;50.37;22.00;;;9.90;91.10;;;;;;5077237;28;20412;-78
2022/03/16 09:27:25;;;;;;;56.30;24.07;;;9.80;91.10;;;;;;5094183;28;20436;-78
2022/03/16 09:29:53;;;;;;;61.67;25.20;;;9.70;91.30;;;;;;5073201;28;20634;-77
2022/03/16 09:32:21;;;;;;;52.30;23.70;;;9.80;91.40;;;;;;5091728;28;20432;-78
2022/03/16 09:34:48;;;;;;;52.13;22.27;;;9.90;91.40;;;;;;5092421;28;20413;-78
2022/03/16 09:37:14;;;;;;;58.17;24.57;;;10.00;91.20;;;;;;5091771;28;20543;-77
2022/03/16 09:39:40;;;;;;;52.73;24.40;;;10.00;91.10;;;;;;5075640;28;20711;-79
2022/03/16 09:42:08;;;;;;;56.83;26.23;;;10.00;90.90;;;;;;5100317;28;20524;-79
2022/03/16 09:44:34;;;;;;;56.77;24.73;;;10.00;91.00;;;;;;5103675;28;20413;-77
2022/03/16 09:47:00;;;;;;;55.00;22.70;;;10.00;91.10;;;;;;5105685;28;20482;-77
2022/03/16 09:49:27;;;;;;;56.30;24.13;;;10.00;91.20;;;;;;5100673;28;20806;-77
2022/03/16 09:51:53;;;;;;;52.47;23.40;;;10.10;91.10;;;;;;5082813;28;20528;-78
2022/03/16 09:54:20;;;;;;;56.97;24.30;;;10.20;90.90;;;;;;5101107;28;20466;-79
2022/03/16 09:56:47;;;;;;;57.77;24.30;;;10.20;90.70;;;;;;5083703;28;20447;-78
2022/03/16 09:59:14;;;;;;;49.23;22.87;;;10.40;90.60;;;;;;5085898;28;20421;-79
2022/03/16 10:01:42;;;;;;;52.80;22.80;;;10.40;90.30;;;;;;5103546;28;20470;-78
2022/03/16 10:04:08;;;;;;;58.13;24.60;;;10.60;90.20;;;;;;5083212;28;20417;-78
2022/03/16 10:06:40;;;;;;;53.20;23.73;;;10.60;90.00;;;;;;5099058;28;20576;-77
2022/03/16 10:15:07;;;;;;;56.43;24.03;;;10.60;89.20;;;;;;5095713;28;20473;-77
2022/03/16 10:17:45;;;;;;;46.30;21.70;;;10.60;89.70;;;;;;5095420;28;20461;-77
2022/03/16 10:20:26;;;;;;;52.47;21.70;;;10.60;89.60;;;;;;5109242;28;20467;-79
2022/03/16 10:22:56;;;;;;;43.20;21.33;;;10.80;89.20;;;;;;5105219;28;20440;-78
2022/03/16 10:25:22;;;;;;;45.13;20.47;;;10.90;87.70;;;;;;5081723;28;20422;-77
2022/03/16 10:27:48;;;;;;;46.17;19.77;;;11.00;87.60;;;;;;5097244;28;20477;-79
2022/03/16 10:30:14;;;;;;;40.50;18.00;;;11.20;87.30;;;;;;5080605;28;20930;-79
2022/03/16 10:32:52;;;;;;;39.30;18.00;;;11.30;85.30;;;;;;5085485;28;20212;-79
2022/03/16 10:35:18;;;;;;;36.60;16.57;;;11.50;82.80;;;;;;5101177;28;20962;-79
2022/03/16 10:37:47;;;;;;;42.80;19.07;;;11.50;82.70;;;;;;5089823;28;20527;-79
2022/03/16 10:40:19;;;;;;;34.40;17.53;;;11.80;82.10;;;;;;5103843;28;20436;-80
2022/03/16 10:48:14;;;;;;;40.27;19.20;;;11.80;79.70;;;;;;5108378;28;20440;-78
2022/03/16 10:50:42;;;;;;;39.47;17.83;;;11.70;80.00;;;;;;5085557;28;20445;-78
2022/03/16 10:53:11;;;;;;;42.43;20.20;;;11.60;79.90;;;;;;5107418;28;20428;-78
2022/03/16 10:55:41;;;;;;;37.83;18.47;;;11.50;80.90;;;;;;5108115;28;20493;-78
2022/03/16 10:58:08;;;;;;;36.77;16.50;;;11.60;81.10;;;;;;5106606;28;20488;-79
2022/03/16 11:00:35;;;;;;;42.63;16.87;;;11.80;80.80;;;;;;5090400;28;20433;-78
2022/03/16 11:03:09;;;;;;;41.33;18.70;;;11.80;79.90;;;;;;5105661;28;20417;-77
2022/03/16 11:05:37;;;;;;;37.73;16.17;;;11.80;79.20;;;;;;5097370;28;20928;-78
2022/03/16 11:08:07;;;;;;;36.50;17.27;;;11.90;79.70;;;;;;5094912;28;20425;-77
2022/03/16 11:10:36;;;;;;;38.60;17.40;;;12.10;78.60;;;;;;5076720;28;20474;-78
2022/03/16 11:15:54;;;;;;;37.23;17.43;;;12.50;76.70;;;;;;5096185;28;20435;-78
2022/03/16 11:18:21;;;;;;;35.43;17.37;;;12.70;76.50;;;;;;5080258;28;20993;-77
2022/03/16 11:20:49;;;;;;;37.63;17.30;;;12.90;76.10;;;;;;5099782;28;20429;-77
2022/03/16 11:26:38;;;;;;;37.60;17.67;;;12.60;75.90;;;;;;5096708;28;20465;-78
2022/03/16 11:29:16;;;;;;;34.47;15.80;;;12.80;75.90;;;;;;5096711;28;20876;-79
2022/03/16 11:31:42;;;;;;;35.37;16.40;;;13.10;75.90;;;;;;5079954;28;21024;-78
2022/03/16 11:34:10;;;;;;;34.33;17.33;;;13.40;74.30;;;;;;5097501;28;20417;-78
2022/03/16 11:36:40;;;;;;;35.20;18.00;;;13.50;72.70;;;;;;5075971;28;20425;-76
2022/03/16 11:39:21;;;;;;;34.97;18.30;;;13.40;72.90;;;;;;5094540;28;20426;-78
2022/03/16 11:41:57;;;;;;;34.50;16.70;;;13.60;73.30;;;;;;5076019;28;20463;-78
2022/03/16 11:44:26;;;;;;;37.73;17.80;;;13.70;72.40;;;;;;5086834;28;20491;-77
2022/03/16 11:46:53;;;;;;;32.50;16.53;;;13.80;72.00;;;;;;5075294;28;20980;-79
2022/03/16 11:49:29;;;;;;;34.30;16.80;;;13.80;72.10;;;;;;5095800;28;20453;-79
2022/03/16 11:52:03;;;;;;;39.33;16.73;;;13.70;72.00;;;;;;5075893;28;20436;-76
2022/03/16 11:54:46;;;;;;;38.20;18.70;;;13.50;73.30;;;;;;5093045;28;21263;-77
2022/03/16 11:57:14;;;;;;;30.60;16.47;;;13.40;73.90;;;;;;5093684;28;20449;-80
2022/03/16 11:59:46;;;;;;;36.93;17.50;;;13.30;74.20;;;;;;5094584;28;20452;-80
2022/03/16 12:02:38;;;;;;;33.67;16.80;;;13.40;74.50;;;;;;5074708;28;20471;-79
2022/03/16 12:05:07;;;;;;;34.53;16.67;;;13.60;74.00;;;;;;5085535;28;20440;-79
2022/03/16 12:07:35;;;;;;;32.70;16.90;;;13.70;72.90;;;;;;5091734;28;20429;-79
2022/03/16 12:10:10;;;;;;;36.23;17.30;;;13.60;73.60;;;;;;5075333;28;20524;-79
2022/03/16 12:12:51;;;;;;;35.43;17.47;;;13.60;73.30;;;;;;5100608;28;20405;-78
2022/03/16 12:15:32;;;;;;;36.50;17.67;;;13.60;73.50;;;;;;5084939;28;20802;-79
2022/03/16 12:18:01;;;;;;;30.63;15.73;;;13.40;73.90;;;;;;5094486;28;20448;-78
2022/03/16 12:20:32;;;;;;;30.83;16.60;;;13.50;74.20;;;;;;5092477;28;20815;-79
2022/03/16 12:23:05;;;;;;;36.67;17.97;;;13.60;73.30;;;;;;5075909;28;20423;-78
2022/03/16 12:25:39;;;;;;;31.97;16.87;;;13.70;73.30;;;;;;5094887;28;20421;-79
2022/03/16 12:31:01;;;;;;;33.60;17.57;;;13.80;72.70;;;;;;5092493;28;20439;-78
2022/03/16 12:33:28;;;;;;;34.67;15.70;;;13.90;72.60;;;;;;5092722;28;20409;-78
2022/03/16 12:35:58;;;;;;;35.53;16.93;;;14.00;72.10;;;;;;5092886;28;20451;-78
2022/03/16 12:38:26;;;;;;;36.57;16.27;;;14.00;71.70;;;;;;5092869;28;20457;-77
2022/03/16 12:43:38;;;;;;;31.57;15.37;;;14.00;71.00;;;;;;5094477;28;20450;-79
2022/03/16 12:46:27;;;;;;;34.50;17.57;;;13.90;71.60;;;;;;5096891;28;20436;-78
2022/03/16 12:49:20;;;;;;;32.30;17.13;;;13.80;72.00;;;;;;5098049;28;20441;-78
2022/03/16 12:51:48;;;;;;;33.00;16.63;;;14.00;72.30;;;;;;5071446;28;20528;-78
2022/03/16 12:54:26;;;;;;;33.30;16.93;;;14.00;71.80;;;;;;5095813;28;20413;-79
2022/03/16 12:56:55;;;;;;;30.33;14.73;;;13.90;70.80;;;;;;5096065;28;20558;-78